Time;durP1;ratioP1;P1;durP2;ratioP2;P2;SDS_P1;SDS_P2;PMS_P1;PMS_P2;Temp;Humidity;BMP_temperature;BMP_pressure;BME280_temperature;BME280_humidity;BME280_pressure;Samples;Min_cycle;Max_cycle;Signal;HPM_P1;HPM_P2
2022/09/08 00:02:11;;;;;;;6.20;3.80;;;17.90;99.90;;;;;;5069619;28;20469;-71
2022/09/08 00:04:37;;;;;;;6.20;3.80;;;17.90;99.90;;;;;;5069943;28;20784;-71
2022/09/08 00:07:06;;;;;;;7.03;4.20;;;17.80;99.90;;;;;;5070059;28;20791;-71
2022/09/08 00:09:32;;;;;;;4.40;4.00;;;17.80;99.90;;;;;;5070437;28;20415;-71
2022/09/08 00:11:58;;;;;;;6.70;3.70;;;17.80;99.90;;;;;;5070347;28;20411;-71
2022/09/08 00:14:24;;;;;;;4.53;3.50;;;17.70;99.90;;;;;;5070116;28;20402;-71
2022/09/08 00:16:50;;;;;;;4.60;3.20;;;17.70;99.90;;;;;;5068968;28;20877;-71
2022/09/08 00:19:17;;;;;;;3.97;3.10;;;17.70;99.90;;;;;;5054544;28;21182;-72
2022/09/08 00:21:42;;;;;;;2.70;2.50;;;17.70;99.90;;;;;;5070144;28;20395;-71
2022/09/08 00:24:08;;;;;;;3.40;2.70;;;17.70;99.90;;;;;;5069310;28;20820;-71
2022/09/08 00:26:34;;;;;;;2.73;2.53;;;17.70;99.90;;;;;;5069802;28;20398;-71
2022/09/08 00:28:59;;;;;;;2.60;2.40;;;17.80;99.90;;;;;;5070303;28;20462;-71
2022/09/08 00:31:25;;;;;;;2.60;2.30;;;17.80;99.90;;;;;;5069791;28;20410;-71
2022/09/08 00:33:50;;;;;;;4.03;2.60;;;17.80;99.90;;;;;;5069668;28;20380;-72
2022/09/08 00:36:17;;;;;;;4.90;2.33;;;17.80;99.90;;;;;;5070019;28;20446;-71
2022/09/08 00:38:50;;;;;;;3.00;2.30;;;17.80;99.90;;;;;;5068928;28;20395;-71
2022/09/08 00:41:16;;;;;;;2.50;2.30;;;17.80;99.90;;;;;;5056961;28;20980;-70
2022/09/08 00:43:44;;;;;;;2.45;1.80;;;17.80;99.90;;;;;;5063028;28;20387;-70
2022/09/08 00:46:09;;;;;;;2.20;2.00;;;17.80;99.90;;;;;;5069932;28;20379;-71
2022/09/08 00:48:44;;;;;;;3.10;2.50;;;17.70;99.90;;;;;;5069656;28;20380;-71
2022/09/08 00:51:11;;;;;;;2.53;1.90;;;17.70;99.90;;;;;;5069470;28;20410;-71
2022/09/08 00:53:40;;;;;;;2.20;2.00;;;17.60;99.90;;;;;;5069532;28;20387;-71
2022/09/08 00:56:07;;;;;;;2.55;2.20;;;17.60;99.90;;;;;;5069651;28;20402;-71
2022/09/08 00:58:37;;;;;;;2.10;2.00;;;17.60;99.90;;;;;;5069804;28;20394;-71
2022/09/08 01:01:05;;;;;;;2.70;2.50;;;17.60;99.90;;;;;;5069657;28;20423;-71
2022/09/08 01:03:31;;;;;;;2.00;1.90;;;17.70;99.90;;;;;;5068573;28;20391;-71
2022/09/08 01:06:13;;;;;;;3.78;2.30;;;17.60;99.90;;;;;;5069254;28;20387;-71
2022/09/08 01:14:44;;;;;;;3.40;2.30;;;17.60;99.90;;;;;;5073235;28;20466;-71
2022/09/08 01:17:21;;;;;;;2.15;2.05;;;17.50;99.90;;;;;;5073360;28;20441;-71
2022/09/08 01:19:48;;;;;;;2.53;2.33;;;17.40;99.90;;;;;;5073591;28;20756;-71
2022/09/08 01:22:24;;;;;;;3.00;2.38;;;17.40;99.90;;;;;;5073314;28;20400;-72
2022/09/08 01:25:09;;;;;;;2.50;2.30;;;17.50;99.90;;;;;;5066609;28;20400;-71
2022/09/08 01:27:37;;;;;;;3.95;2.30;;;17.50;99.90;;;;;;5058199;28;20434;-72
2022/09/08 01:30:06;;;;;;;2.80;2.60;;;17.40;99.90;;;;;;5053389;28;20382;-72
2022/09/08 01:32:35;;;;;;;2.90;2.60;;;17.50;99.90;;;;;;5053192;28;20392;-72
2022/09/08 01:35:01;;;;;;;2.50;2.30;;;17.50;99.90;;;;;;5070218;28;20441;-70
2022/09/08 01:37:28;;;;;;;2.60;2.40;;;17.50;99.90;;;;;;5073206;28;20383;-71
2022/09/08 01:39:53;;;;;;;2.50;2.30;;;17.60;99.90;;;;;;5073319;28;20402;-71
2022/09/08 01:42:19;;;;;;;3.53;2.03;;;17.60;99.90;;;;;;5073144;28;20395;-71
2022/09/08 01:44:45;;;;;;;3.70;2.60;;;17.50;99.90;;;;;;5072500;28;20457;-71
2022/09/08 01:47:11;;;;;;;3.30;2.00;;;17.50;99.90;;;;;;5072898;28;20780;-72
2022/09/08 01:49:37;;;;;;;1.80;1.70;;;17.50;99.90;;;;;;5073087;28;20391;-71
2022/09/08 01:52:02;;;;;;;1.80;1.70;;;17.50;99.90;;;;;;5072959;28;20376;-71
2022/09/08 01:54:28;;;;;;;2.08;1.90;;;17.50;99.90;;;;;;5070823;28;20742;-71
2022/09/08 01:56:55;;;;;;;2.05;1.85;;;17.50;99.90;;;;;;5072930;28;20437;-70
2022/09/08 01:59:21;;;;;;;1.85;1.65;;;17.40;99.90;;;;;;5072762;28;20467;-71
2022/09/08 02:01:46;;;;;;;2.30;1.50;;;17.30;99.90;;;;;;5072959;28;20482;-72
2022/09/08 02:04:12;;;;;;;1.40;1.30;;;17.30;99.90;;;;;;5071988;28;20403;-71
2022/09/08 02:06:38;;;;;;;2.00;1.60;;;17.40;99.90;;;;;;5072311;28;20445;-70
2022/09/08 02:09:04;;;;;;;2.25;1.63;;;17.40;99.90;;;;;;5093301;22;20427;-76
2022/09/08 02:11:30;;;;;;;3.60;2.10;;;17.50;99.90;;;;;;5072977;28;20824;-76
2022/09/08 02:13:55;;;;;;;2.17;1.70;;;17.40;99.90;;;;;;5054324;28;20394;-76
2022/09/08 02:16:21;;;;;;;4.10;2.00;;;17.40;99.90;;;;;;5054887;28;20384;-76
2022/09/08 02:18:47;;;;;;;4.57;1.90;;;17.30;99.90;;;;;;5072620;28;20387;-76
2022/09/08 02:21:18;;;;;;;2.20;1.93;;;17.30;99.90;;;;;;5072481;28;20460;-76
2022/09/08 02:23:46;;;;;;;1.60;1.50;;;17.30;99.90;;;;;;5060085;28;20536;-76
2022/09/08 02:26:18;;;;;;;1.92;1.30;;;17.40;99.90;;;;;;5051372;28;20381;-76
2022/09/08 02:28:43;;;;;;;0.80;0.80;;;17.30;99.90;;;;;;5052230;28;20872;-75
2022/09/08 02:31:09;;;;;;;0.70;0.70;;;17.40;99.90;;;;;;5052413;28;20463;-76
2022/09/08 02:33:35;;;;;;;1.13;0.88;;;17.40;99.90;;;;;;5054807;28;20403;-77
2022/09/08 02:36:02;;;;;;;0.80;0.70;;;17.60;99.90;;;;;;5072283;28;20459;-76
2022/09/08 02:38:28;;;;;;;1.40;1.00;;;17.40;99.90;;;;;;5072109;28;20399;-76
2022/09/08 02:40:54;;;;;;;3.00;0.95;;;17.20;99.90;;;;;;5054620;28;20402;-76
2022/09/08 02:43:21;;;;;;;1.70;1.00;;;17.20;99.90;;;;;;5052978;28;20434;-76
2022/09/08 02:45:47;;;;;;;1.38;1.13;;;17.10;99.90;;;;;;5052181;28;20397;-76
2022/09/08 02:48:13;;;;;;;1.70;1.02;;;17.00;99.90;;;;;;5051894;28;20389;-76
2022/09/08 02:50:39;;;;;;;1.10;1.00;;;17.00;99.90;;;;;;5051939;28;20472;-76
2022/09/08 02:53:05;;;;;;;1.45;0.88;;;16.90;99.90;;;;;;5051699;28;20485;-76
2022/09/08 02:55:30;;;;;;;1.00;0.90;;;17.00;99.90;;;;;;5070050;28;20474;-76
2022/09/08 02:57:56;;;;;;;1.27;1.17;;;17.10;99.90;;;;;;5071928;28;20881;-75
2022/09/08 03:00:21;;;;;;;1.10;1.00;;;16.90;99.90;;;;;;5053667;28;20388;-76
2022/09/08 03:02:47;;;;;;;1.40;1.02;;;16.80;99.90;;;;;;5071531;28;20400;-76
2022/09/08 03:05:13;;;;;;;2.57;1.10;;;16.90;99.90;;;;;;5036859;28;20806;-76
2022/09/08 03:07:39;;;;;;;4.55;1.20;;;16.80;99.90;;;;;;5051295;28;20435;-76
2022/09/08 03:10:06;;;;;;;1.42;1.17;;;16.80;99.90;;;;;;5033800;28;20385;-76
2022/09/08 03:12:33;;;;;;;1.40;1.30;;;16.90;99.90;;;;;;5033626;28;20461;-76
2022/09/08 03:14:58;;;;;;;2.45;1.13;;;16.80;99.90;;;;;;5064622;28;20388;-76
2022/09/08 03:17:24;;;;;;;1.30;1.20;;;16.80;99.90;;;;;;5071586;28;20402;-76
2022/09/08 03:19:51;;;;;;;1.50;1.20;;;16.80;99.90;;;;;;5071537;28;20384;-76
2022/09/08 03:22:17;;;;;;;1.70;1.10;;;16.70;99.90;;;;;;5071284;28;20402;-76
2022/09/08 03:24:43;;;;;;;2.60;1.40;;;16.70;99.90;;;;;;5046698;28;20404;-76
2022/09/08 03:27:09;;;;;;;2.45;1.10;;;16.70;99.90;;;;;;5051399;28;20831;-76
2022/09/08 03:29:34;;;;;;;4.45;1.60;;;16.70;99.90;;;;;;5051343;28;20442;-76
2022/09/08 03:32:00;;;;;;;1.20;1.10;;;16.70;99.90;;;;;;5051772;28;20421;-76
2022/09/08 03:34:26;;;;;;;2.30;1.10;;;16.80;99.90;;;;;;5059134;28;20468;-76
2022/09/08 03:36:53;;;;;;;3.00;1.50;;;16.70;99.90;;;;;;5071456;28;20378;-76
2022/09/08 03:39:19;;;;;;;2.30;1.60;;;16.70;99.90;;;;;;5071229;28;20426;-76
2022/09/08 03:41:45;;;;;;;2.10;1.40;;;16.70;99.90;;;;;;5071323;28;20395;-75
2022/09/08 03:44:10;;;;;;;2.40;1.50;;;16.70;99.90;;;;;;5064374;28;20467;-76
2022/09/08 03:46:36;;;;;;;1.40;1.30;;;16.70;99.90;;;;;;5051448;28;20778;-76
2022/09/08 03:49:01;;;;;;;1.80;1.30;;;16.80;99.90;;;;;;5051047;28;20390;-76
2022/09/08 03:51:28;;;;;;;2.22;1.40;;;16.70;99.90;;;;;;5068904;28;20399;-76
2022/09/08 03:56:41;;;;;;;1.65;1.15;;;17.00;99.90;;;;;;5051218;28;20419;-76
2022/09/08 03:59:08;;;;;;;1.60;0.90;;;17.20;99.90;;;;;;5050970;28;20398;-75
2022/09/08 04:01:34;;;;;;;1.60;1.17;;;17.10;99.90;;;;;;5033064;28;20435;-76
2022/09/08 04:03:59;;;;;;;5.15;1.30;;;17.00;99.90;;;;;;5032922;28;20393;-76
2022/09/08 04:06:25;;;;;;;2.37;1.00;;;17.10;99.90;;;;;;5058911;28;20869;-76
2022/09/08 04:08:51;;;;;;;1.50;1.40;;;16.90;99.90;;;;;;5052874;28;20395;-76
2022/09/08 04:11:16;;;;;;;1.10;0.98;;;16.90;99.90;;;;;;5046094;28;20405;-76
2022/09/08 04:13:42;;;;;;;2.30;1.30;;;17.10;99.90;;;;;;5050665;28;20413;-76
2022/09/08 04:16:07;;;;;;;2.00;1.47;;;17.00;99.90;;;;;;5050447;28;20396;-76
2022/09/08 04:18:33;;;;;;;1.40;1.30;;;17.00;99.90;;;;;;5046779;28;20410;-76
2022/09/08 04:21:01;;;;;;;1.80;0.90;;;17.00;99.90;;;;;;5028313;28;20401;-76
2022/09/08 04:23:27;;;;;;;12.52;7.43;;;17.10;99.90;;;;;;5057770;28;20860;-76
2022/09/08 04:26:01;;;;;;;2.50;1.70;;;17.20;99.90;;;;;;5053342;28;20429;-76
2022/09/08 04:28:28;;;;;;;1.70;1.20;;;17.00;99.90;;;;;;5050493;28;20389;-76
2022/09/08 04:30:53;;;;;;;1.20;1.10;;;17.00;99.90;;;;;;5050413;28;20874;-76
2022/09/08 04:33:19;;;;;;;1.63;1.30;;;17.10;99.90;;;;;;5050154;28;20388;-76
2022/09/08 04:35:44;;;;;;;1.50;1.40;;;17.00;99.90;;;;;;5070496;28;20384;-76
2022/09/08 04:38:10;;;;;;;4.50;1.60;;;16.90;99.90;;;;;;5043644;28;20424;-76
2022/09/08 04:40:36;;;;;;;1.80;1.40;;;16.90;99.90;;;;;;5050365;28;20408;-76
2022/09/08 04:43:01;;;;;;;1.60;1.20;;;16.80;99.90;;;;;;5048963;28;20930;-76
2022/09/08 04:45:27;;;;;;;2.07;1.60;;;16.90;99.90;;;;;;5050247;28;20377;-76
2022/09/08 04:47:52;;;;;;;1.73;1.08;;;17.10;99.90;;;;;;5051811;28;20431;-76
2022/09/08 04:50:18;;;;;;;2.00;1.20;;;17.20;99.90;;;;;;5051713;28;20418;-77
2022/09/08 04:52:43;;;;;;;1.60;1.10;;;17.10;99.90;;;;;;5050190;28;20458;-77
2022/09/08 04:55:10;;;;;;;2.10;1.00;;;17.20;99.90;;;;;;5050111;28;20465;-77
2022/09/08 04:57:36;;;;;;;1.92;1.40;;;17.10;99.90;;;;;;5030878;28;20431;-76
2022/09/08 05:00:03;;;;;;;2.15;1.15;;;16.90;99.90;;;;;;5049123;28;20425;-75
2022/09/08 05:02:29;;;;;;;1.55;1.45;;;16.80;99.90;;;;;;5031923;28;20441;-75
2022/09/08 05:04:54;;;;;;;1.10;1.00;;;16.80;99.90;;;;;;5050180;28;20416;-75
2022/09/08 05:07:20;;;;;;;1.10;0.93;;;16.90;99.90;;;;;;5048333;28;20393;-75
2022/09/08 05:09:46;;;;;;;1.80;1.30;;;16.90;99.90;;;;;;5045637;28;20751;-75
2022/09/08 05:12:12;;;;;;;1.20;1.10;;;16.80;99.90;;;;;;5046623;28;20761;-76
2022/09/08 05:14:37;;;;;;;1.00;0.90;;;16.70;99.90;;;;;;5030348;28;20389;-76
2022/09/08 05:17:03;;;;;;;1.50;1.40;;;16.80;99.90;;;;;;5030880;28;20900;-76
2022/09/08 05:19:29;;;;;;;3.27;1.80;;;16.90;99.90;;;;;;5032190;28;20563;-76
2022/09/08 05:21:54;;;;;;;1.90;1.10;;;17.10;99.90;;;;;;5047476;28;20401;-75
2022/09/08 05:24:21;;;;;;;4.85;1.48;;;17.10;99.90;;;;;;5045270;28;20405;-77
2022/09/08 05:26:46;;;;;;;1.20;1.10;;;16.90;99.90;;;;;;5049319;28;20397;-75
2022/09/08 05:29:12;;;;;;;1.60;1.20;;;17.20;99.90;;;;;;5048139;28;20623;-75
2022/09/08 05:31:38;;;;;;;1.10;0.90;;;17.20;99.90;;;;;;5049304;28;20393;-76
2022/09/08 05:34:04;;;;;;;1.80;1.02;;;17.40;99.90;;;;;;5050457;28;20386;-75
2022/09/08 05:36:35;;;;;;;1.73;0.90;;;17.50;99.90;;;;;;5048881;28;20394;-76
2022/09/08 05:39:02;;;;;;;1.55;1.10;;;17.50;99.90;;;;;;5029328;28;20468;-76
2022/09/08 05:41:30;;;;;;;1.40;1.10;;;17.30;99.90;;;;;;5030794;28;20492;-76
2022/09/08 05:43:57;;;;;;;1.10;0.90;;;17.30;99.90;;;;;;5048513;28;20397;-75
2022/09/08 05:46:25;;;;;;;1.23;1.13;;;17.30;99.90;;;;;;5049582;28;20805;-76
2022/09/08 05:48:52;;;;;;;1.50;1.00;;;17.50;99.90;;;;;;5046221;28;20489;-75
2022/09/08 05:51:18;;;;;;;1.73;1.10;;;17.40;99.90;;;;;;5049115;28;20393;-75
2022/09/08 05:53:44;;;;;;;1.70;1.20;;;17.40;99.90;;;;;;5052876;28;20463;-74
2022/09/08 05:56:10;;;;;;;2.10;1.35;;;17.40;99.90;;;;;;5052035;28;20384;-74
2022/09/08 05:58:36;;;;;;;1.60;1.00;;;17.50;99.90;;;;;;5050879;28;20395;-77
2022/09/08 06:01:08;;;;;;;1.90;1.00;;;17.50;99.90;;;;;;5053433;28;20488;-75
2022/09/08 06:03:34;;;;;;;11.05;7.10;;;17.50;99.90;;;;;;5053174;28;20751;-75
2022/09/08 06:06:08;;;;;;;4.07;3.10;;;17.50;99.90;;;;;;5054524;28;20898;-75
2022/09/08 06:08:34;;;;;;;1.20;1.10;;;17.50;99.90;;;;;;5056000;28;20491;-74
2022/09/08 06:11:00;;;;;;;1.20;1.10;;;17.40;99.90;;;;;;5055907;28;20397;-74
2022/09/08 06:13:26;;;;;;;1.50;1.40;;;17.50;99.90;;;;;;5053156;28;20436;-75
2022/09/08 06:15:52;;;;;;;1.20;1.10;;;17.50;99.90;;;;;;5055630;28;20458;-74
2022/09/08 06:18:18;;;;;;;1.38;1.20;;;17.50;99.90;;;;;;5037315;28;20838;-74
2022/09/08 06:20:45;;;;;;;1.23;1.13;;;17.50;99.90;;;;;;5055838;28;20475;-75
2022/09/08 06:23:12;;;;;;;1.60;1.10;;;17.50;99.90;;;;;;5057032;28;20393;-75
2022/09/08 06:25:39;;;;;;;1.80;1.15;;;17.50;99.90;;;;;;5053996;28;20389;-75
2022/09/08 06:28:24;;;;;;;3.03;1.10;;;17.50;99.90;;;;;;5052376;28;20382;-75
2022/09/08 06:30:52;;;;;;;1.05;0.95;;;17.50;99.90;;;;;;5052022;28;20378;-75
2022/09/08 06:33:27;;;;;;;1.63;1.00;;;17.60;99.90;;;;;;5048096;28;20413;-75
2022/09/08 06:36:09;;;;;;;61.60;44.90;;;17.70;99.90;;;;;;5049340;28;20476;-75
2022/09/08 06:38:49;;;;;;;2.50;1.10;;;17.70;99.90;;;;;;5033389;28;20820;-75
2022/09/08 06:41:20;;;;;;;1.00;0.95;;;17.70;99.90;;;;;;5047228;28;20405;-75
2022/09/08 06:43:58;;;;;;;1.23;1.13;;;17.60;99.90;;;;;;5051803;28;20527;-75
2022/09/08 06:46:29;;;;;;;1.30;1.00;;;17.60;99.90;;;;;;5049186;28;20406;-76
2022/09/08 06:48:54;;;;;;;1.17;1.05;;;17.60;99.90;;;;;;5048646;28;20393;-75
2022/09/08 06:51:31;;;;;;;2.70;1.47;;;17.70;99.90;;;;;;5031224;28;20402;-75
2022/09/08 06:54:08;;;;;;;1.20;1.00;;;17.70;99.90;;;;;;5027035;28;20950;-75
2022/09/08 06:56:40;;;;;;;1.80;1.02;;;17.80;99.90;;;;;;5050216;28;20880;-74
2022/09/08 06:59:26;;;;;;;1.40;1.17;;;17.80;99.90;;;;;;5047903;28;20445;-75
2022/09/08 07:02:07;;;;;;;1.10;1.00;;;17.80;99.90;;;;;;5049241;28;20452;-75
2022/09/08 07:04:51;;;;;;;1.20;1.00;;;17.90;99.90;;;;;;5048742;28;20385;-75
2022/09/08 07:07:39;;;;;;;1.65;1.00;;;17.90;99.90;;;;;;5028858;28;20824;-75
2022/09/08 07:10:39;;;;;;;0.70;0.70;;;18.00;99.90;;;;;;5047564;28;20467;-75
2022/09/08 07:13:16;;;;;;;2.30;1.40;;;17.90;99.90;;;;;;5036401;28;20409;-73
2022/09/08 07:16:03;;;;;;;1.40;1.10;;;17.90;99.90;;;;;;5041288;28;20921;-73
2022/09/08 07:18:50;;;;;;;2.10;1.20;;;18.00;99.90;;;;;;5026610;28;20843;-73
2022/09/08 07:21:29;;;;;;;0.93;0.80;;;18.10;99.90;;;;;;5049593;28;20420;-73
2022/09/08 07:24:00;;;;;;;1.20;1.10;;;18.20;99.90;;;;;;5033381;28;20406;-71
2022/09/08 07:26:46;;;;;;;1.40;1.00;;;18.20;99.90;;;;;;5051420;28;21038;-74
2022/09/08 07:29:17;;;;;;;1.50;0.95;;;18.30;99.90;;;;;;5051526;28;20386;-74
2022/09/08 07:31:47;;;;;;;1.10;0.80;;;18.20;99.90;;;;;;5051515;28;20389;-73
2022/09/08 07:34:25;;;;;;;2.30;1.10;;;18.30;99.90;;;;;;5049226;28;20414;-73
2022/09/08 07:36:57;;;;;;;0.80;0.80;;;18.40;99.90;;;;;;5040717;28;20909;-74
2022/09/08 07:39:35;;;;;;;1.67;0.93;;;18.30;99.90;;;;;;5048946;28;20389;-73
2022/09/08 07:42:03;;;;;;;0.90;0.80;;;18.30;99.90;;;;;;5040663;28;20436;-73
2022/09/08 07:44:29;;;;;;;1.60;0.85;;;18.30;99.90;;;;;;5046877;28;20393;-73
2022/09/08 07:47:33;;;;;;;1.10;0.80;;;18.30;99.90;;;;;;5050956;28;20396;-72
2022/09/08 07:50:13;;;;;;;1.25;0.93;;;18.30;99.90;;;;;;5043361;28;20838;-73
2022/09/08 07:53:07;;;;;;;2.10;1.10;;;18.30;99.90;;;;;;5047342;28;20416;-73
2022/09/08 07:55:42;;;;;;;2.05;1.30;;;18.40;99.90;;;;;;5047758;28;20421;-73
2022/09/08 07:58:30;;;;;;;2.03;0.80;;;18.30;99.90;;;;;;5033098;28;20381;-74
2022/09/08 08:01:40;;;;;;;8.48;6.35;;;18.30;99.90;;;;;;5050043;28;20393;-74
2022/09/08 08:04:27;;;;;;;0.93;0.77;;;18.20;99.90;;;;;;5008615;28;20496;-73
2022/09/08 08:06:55;;;;;;;1.52;0.80;;;18.10;99.90;;;;;;5050776;28;20377;-73
2022/09/08 08:09:33;;;;;;;0.77;0.70;;;18.10;99.90;;;;;;5049700;28;20393;-72
2022/09/08 08:12:11;;;;;;;1.13;0.80;;;18.10;99.90;;;;;;5051010;28;20385;-73
2022/09/08 08:14:57;;;;;;;0.88;0.70;;;18.00;99.90;;;;;;5050662;28;20382;-72
2022/09/08 08:17:35;;;;;;;1.80;1.10;;;17.90;99.90;;;;;;5048439;28;20373;-73
2022/09/08 08:20:28;;;;;;;1.10;1.00;;;18.00;99.90;;;;;;5072687;22;20441;-74
2022/09/08 08:23:00;;;;;;;0.97;0.77;;;18.10;99.90;;;;;;5046589;28;20824;-74
2022/09/08 08:25:30;;;;;;;1.00;0.70;;;18.20;99.90;;;;;;5048338;28;20381;-73
2022/09/08 08:28:12;;;;;;;1.53;1.10;;;18.20;99.90;;;;;;5065361;28;20390;-72
2022/09/08 08:30:43;;;;;;;1.90;0.80;;;18.20;99.90;;;;;;5032161;28;20809;-73
2022/09/08 08:33:20;;;;;;;1.40;0.82;;;18.30;99.90;;;;;;5029406;28;20393;-74
2022/09/08 08:36:05;;;;;;;2.00;0.85;;;18.40;99.90;;;;;;5048306;28;20491;-74
2022/09/08 08:38:38;;;;;;;1.20;0.77;;;18.60;99.90;;;;;;5038698;28;20414;-74
2022/09/08 08:41:42;;;;;;;1.30;0.80;;;18.80;99.90;;;;;;5041669;28;20935;-73
2022/09/08 08:44:32;;;;;;;2.25;0.90;;;18.90;99.90;;;;;;5017128;28;21299;-74
2022/09/08 08:47:14;;;;;;;2.03;0.80;;;18.90;99.90;;;;;;5038789;28;20405;-74
2022/09/08 08:49:42;;;;;;;1.40;1.10;;;19.10;99.90;;;;;;5037000;28;20397;-76
2022/09/08 08:52:35;;;;;;;1.40;0.90;;;19.20;99.90;;;;;;5037231;28;20415;-73
2022/09/08 08:55:25;;;;;;;0.90;0.70;;;19.20;99.90;;;;;;5042886;28;20426;-72
2022/09/08 08:58:37;;;;;;;1.40;1.00;;;19.10;99.90;;;;;;5020061;28;20391;-74
2022/09/08 09:01:21;;;;;;;1.40;1.13;;;19.10;99.90;;;;;;5040511;28;20409;-74
2022/09/08 09:03:59;;;;;;;0.80;0.80;;;19.20;99.90;;;;;;5041454;28;20396;-74
2022/09/08 09:06:54;;;;;;;3.60;0.90;;;19.20;99.90;;;;;;5031329;28;20389;-74
2022/09/08 09:09:35;;;;;;;1.70;0.90;;;19.20;99.90;;;;;;5049957;28;20384;-75
2022/09/08 09:12:22;;;;;;;0.93;0.70;;;19.30;99.90;;;;;;5050064;28;20397;-75
2022/09/08 09:15:12;;;;;;;3.50;1.00;;;19.30;99.90;;;;;;5036752;28;20411;-76
2022/09/08 09:18:01;;;;;;;3.90;1.20;;;19.20;99.90;;;;;;5019762;28;20802;-75
2022/09/08 09:21:01;;;;;;;2.50;2.15;;;19.30;99.90;;;;;;5040132;28;20403;-74
2022/09/08 09:23:53;;;;;;;2.10;1.00;;;19.20;99.90;;;;;;5039309;28;20402;-74
2022/09/08 09:26:20;;;;;;;2.00;0.90;;;19.20;99.90;;;;;;5039861;28;20418;-73
2022/09/08 09:28:52;;;;;;;1.40;0.80;;;19.30;99.90;;;;;;5039742;28;20447;-74
2022/09/08 09:31:46;;;;;;;1.27;0.90;;;19.20;99.90;;;;;;5022168;28;20392;-73
2022/09/08 09:34:37;;;;;;;1.90;0.85;;;19.20;99.90;;;;;;5038459;28;20439;-74
2022/09/08 09:37:33;;;;;;;1.57;0.93;;;19.30;99.90;;;;;;5042104;28;20411;-74
2022/09/08 09:40:14;;;;;;;1.15;1.00;;;19.20;99.90;;;;;;5043621;28;20397;-72
2022/09/08 09:42:56;;;;;;;1.60;0.80;;;19.20;99.90;;;;;;5041317;28;20912;-75
2022/09/08 09:45:25;;;;;;;2.00;1.30;;;19.20;99.90;;;;;;5041421;28;20410;-74
2022/09/08 09:48:11;;;;;;;2.85;0.93;;;19.30;99.90;;;;;;5042301;28;20373;-74
2022/09/08 09:51:16;;;;;;;1.37;1.00;;;19.30;99.90;;;;;;5040758;28;20396;-72
2022/09/08 09:53:58;;;;;;;2.50;0.80;;;19.60;99.90;;;;;;5041421;28;20410;-74
2022/09/08 09:56:48;;;;;;;1.00;0.90;;;19.50;99.90;;;;;;5041806;28;20927;-75
2022/09/08 09:59:35;;;;;;;11.13;8.13;;;19.70;99.90;;;;;;5045859;28;20408;-73
2022/09/08 10:02:31;;;;;;;2.85;1.42;;;19.80;99.90;;;;;;5030348;28;20508;-75
2022/09/08 10:05:21;;;;;;;2.30;0.90;;;19.80;99.90;;;;;;5021880;28;20490;-74
2022/09/08 10:08:25;;;;;;;1.92;1.00;;;19.90;99.90;;;;;;5043790;28;20407;-74
2022/09/08 10:11:19;;;;;;;1.20;0.50;;;19.80;99.90;;;;;;5040658;28;20535;-73
2022/09/08 10:14:25;;;;;;;2.25;0.95;;;19.70;99.90;;;;;;5043555;28;20450;-74
2022/09/08 10:17:15;;;;;;;1.60;0.85;;;19.60;99.90;;;;;;5041629;28;20399;-74
2022/09/08 10:19:55;;;;;;;1.42;0.70;;;19.70;99.90;;;;;;5028892;28;20408;-74
2022/09/08 10:22:31;;;;;;;3.28;1.00;;;19.70;99.90;;;;;;5028597;28;20786;-73
2022/09/08 10:25:23;;;;;;;2.40;0.90;;;19.80;99.90;;;;;;5020570;28;20402;-75
2022/09/08 10:28:34;;;;;;;3.07;1.00;;;20.00;99.90;;;;;;5039420;28;20422;-74
2022/09/08 10:31:38;;;;;;;3.50;1.00;;;20.10;99.90;;;;;;5037839;28;20395;-71
2022/09/08 10:34:15;;;;;;;2.40;0.90;;;20.20;99.90;;;;;;5042267;28;20541;-72
2022/09/08 10:36:53;;;;;;;2.90;1.40;;;20.10;99.90;;;;;;5043152;28;20394;-73
2022/09/08 10:40:04;;;;;;;4.50;0.90;;;20.10;99.90;;;;;;5040947;28;20742;-73
2022/09/08 10:42:47;;;;;;;1.05;0.80;;;20.20;99.90;;;;;;5041241;28;20413;-73
2022/09/08 10:45:34;;;;;;;1.80;1.00;;;20.30;99.90;;;;;;5038120;28;20391;-74
2022/09/08 10:48:14;;;;;;;4.75;1.23;;;20.30;99.90;;;;;;5042227;28;20375;-74
2022/09/08 10:50:51;;;;;;;2.28;1.20;;;20.40;99.90;;;;;;5022137;28;20399;-74
2022/09/08 10:53:16;;;;;;;1.53;0.93;;;20.70;99.90;;;;;;5039963;28;20544;-75
2022/09/08 10:56:04;;;;;;;3.80;1.40;;;20.90;99.90;;;;;;5042225;28;20409;-75
2022/09/08 10:58:58;;;;;;;1.30;0.85;;;20.90;99.90;;;;;;5041466;28;20454;-75
2022/09/08 11:01:54;;;;;;;2.63;0.90;;;20.60;99.90;;;;;;5023446;28;20789;-74
2022/09/08 11:04:42;;;;;;;2.85;1.10;;;20.60;99.90;;;;;;5043376;28;20408;-74
2022/09/08 11:07:07;;;;;;;3.43;1.30;;;20.80;99.90;;;;;;5039372;28;20593;-73
2022/09/08 11:09:59;;;;;;;4.03;1.10;;;20.90;99.90;;;;;;5028409;28;20394;-73
2022/09/08 11:12:28;;;;;;;2.00;0.90;;;21.40;99.90;;;;;;5046125;28;20397;-73
2022/09/08 11:15:27;;;;;;;1.83;0.90;;;21.10;99.90;;;;;;5044272;28;20482;-73
2022/09/08 11:18:09;;;;;;;1.67;0.90;;;20.70;99.90;;;;;;5043253;28;20428;-74
2022/09/08 11:20:48;;;;;;;1.38;0.90;;;20.80;99.90;;;;;;5025647;28;20410;-73
2022/09/08 11:23:28;;;;;;;1.88;1.10;;;21.10;99.90;;;;;;5044230;28;20408;-74
2022/09/08 11:26:11;;;;;;;2.55;1.00;;;21.40;99.90;;;;;;5046492;28;20802;-73
2022/09/08 11:28:50;;;;;;;4.00;0.80;;;21.80;99.90;;;;;;5043261;28;20388;-73
2022/09/08 11:31:34;;;;;;;2.80;1.00;;;22.40;99.90;;;;;;5040806;28;20389;-73
2022/09/08 11:34:14;;;;;;;3.35;1.17;;;23.10;99.90;;;;;;5019274;28;20409;-73
2022/09/08 11:37:19;;;;;;;23.77;21.38;;;23.10;99.90;;;;;;5043217;28;20752;-74
2022/09/08 11:40:35;;;;;;;2.60;0.80;;;22.30;99.90;;;;;;5039484;28;20401;-70
2022/09/08 11:43:25;;;;;;;2.25;0.70;;;22.00;99.90;;;;;;5042231;28;20440;-70
2022/09/08 11:46:17;;;;;;;2.33;0.80;;;23.10;99.80;;;;;;5043901;28;20769;-69
2022/09/08 11:48:54;;;;;;;2.30;1.08;;;22.60;99.90;;;;;;5039928;28;20481;-70
2022/09/08 11:51:42;;;;;;;2.28;1.20;;;21.90;99.90;;;;;;5036750;28;20379;-69
2022/09/08 11:54:36;;;;;;;3.05;0.98;;;21.50;99.90;;;;;;5042893;28;20400;-71
2022/09/08 11:57:14;;;;;;;2.40;1.20;;;21.80;99.90;;;;;;5039618;28;20380;-70
2022/09/08 11:59:58;;;;;;;2.90;0.82;;;22.60;99.90;;;;;;5041783;28;20390;-70
2022/09/08 12:03:04;;;;;;;2.20;0.90;;;23.80;98.30;;;;;;5042792;28;20404;-69
2022/09/08 12:05:58;;;;;;;0.80;0.63;;;24.70;92.90;;;;;;5043413;28;20815;-71
2022/09/08 12:08:44;;;;;;;2.10;1.10;;;25.00;89.20;;;;;;5042901;28;20389;-70
2022/09/08 12:11:37;;;;;;;2.75;1.00;;;24.20;88.50;;;;;;5041301;28;20407;-70
2022/09/08 12:14:20;;;;;;;2.50;0.90;;;23.20;92.20;;;;;;5039588;28;20390;-70
2022/09/08 12:16:54;;;;;;;3.78;1.00;;;22.30;96.20;;;;;;5037519;28;20742;-70
2022/09/08 12:19:57;;;;;;;2.20;0.80;;;22.20;97.00;;;;;;5038989;28;20399;-70
2022/09/08 12:23:00;;;;;;;0.90;0.60;;;22.00;94.60;;;;;;5039827;28;20407;-69
2022/09/08 12:25:44;;;;;;;1.35;0.70;;;21.80;94.90;;;;;;5040205;28;20409;-73
2022/09/08 12:28:34;;;;;;;1.97;0.67;;;22.30;93.50;;;;;;5041577;28;20467;-73
2022/09/08 12:31:07;;;;;;;1.48;0.80;;;22.10;93.20;;;;;;5040847;28;20400;-75
2022/09/08 12:33:46;;;;;;;2.03;0.80;;;21.90;94.50;;;;;;5037628;28;20442;-74
2022/09/08 12:36:40;;;;;;;2.60;0.88;;;21.70;94.40;;;;;;5044555;28;20393;-74
2022/09/08 12:39:23;;;;;;;2.50;0.80;;;21.80;95.80;;;;;;5037217;28;20395;-74
2022/09/08 12:42:07;;;;;;;1.77;0.80;;;21.90;96.00;;;;;;5039714;28;20412;-73
2022/09/08 12:44:40;;;;;;;2.42;0.68;;;22.50;93.90;;;;;;5037856;28;20397;-73
2022/09/08 12:47:22;;;;;;;2.50;1.02;;;22.90;93.50;;;;;;5041711;28;20992;-72
2022/09/08 12:50:01;;;;;;;1.80;0.80;;;23.10;92.60;;;;;;5050057;28;20381;-72
2022/09/08 12:52:27;;;;;;;2.10;0.80;;;22.70;93.90;;;;;;5049800;28;20419;-73
2022/09/08 12:55:14;;;;;;;2.70;0.90;;;22.70;92.90;;;;;;5050013;28;20377;-74
2022/09/08 12:58:01;;;;;;;1.80;0.60;;;22.20;93.60;;;;;;5032123;28;20413;-74
2022/09/08 13:00:39;;;;;;;1.63;0.90;;;22.40;93.10;;;;;;5046033;28;20474;-74
2022/09/08 13:03:22;;;;;;;1.20;0.60;;;22.60;93.30;;;;;;5029869;28;20398;-73
2022/09/08 13:05:53;;;;;;;2.40;0.80;;;22.60;89.50;;;;;;5030009;28;20772;-73
2022/09/08 13:08:28;;;;;;;2.07;0.87;;;22.50;91.00;;;;;;5030038;28;20441;-74
2022/09/08 13:11:05;;;;;;;3.30;0.82;;;22.70;90.00;;;;;;5034184;28;20389;-72
2022/09/08 13:13:35;;;;;;;1.88;0.60;;;22.60;86.30;;;;;;5033877;28;20379;-73
2022/09/08 13:16:20;;;;;;;2.60;0.80;;;22.60;84.80;;;;;;5051152;28;20456;-73
2022/09/08 13:18:54;;;;;;;1.60;0.90;;;23.10;85.30;;;;;;5052998;28;20890;-72
2022/09/08 13:21:38;;;;;;;2.15;0.60;;;23.60;80.70;;;;;;5053785;28;20412;-74
2022/09/08 13:24:16;;;;;;;1.70;0.60;;;23.80;78.20;;;;;;5051580;28;20775;-72
2022/09/08 13:26:51;;;;;;;2.65;0.70;;;23.80;78.30;;;;;;5044127;28;20744;-73
2022/09/08 13:29:32;;;;;;;2.00;0.70;;;24.10;78.20;;;;;;5035784;28;20397;-73
2022/09/08 13:32:21;;;;;;;3.00;1.20;;;24.20;80.00;;;;;;5053736;28;20384;-73
2022/09/08 13:35:18;;;;;;;3.08;0.80;;;24.40;81.50;;;;;;5046582;28;20444;-72
2022/09/08 13:38:01;;;;;;;1.00;0.70;;;23.40;81.50;;;;;;5033739;28;20386;-73